sensor_id;sensor_type;location;lat;lon;timestamp;P1;durP1;ratioP1;P2;durP2;ratioP2
51438;SDS011;38816;51.142;-0.974;2023-05-25T00:02:17;111.22;;;103.72;;
51438;SDS011;38816;51.142;-0.974;2023-05-25T00:04:42;109.82;;;101.55;;
51438;SDS011;38816;51.142;-0.974;2023-05-25T00:07:07;111.90;;;103.97;;
51438;SDS011;38816;51.142;-0.974;2023-05-25T00:09:33;111.55;;;103.93;;
51438;SDS011;38816;51.142;-0.974;2023-05-25T00:11:59;112.88;;;104.90;;
51438;SDS011;38816;51.142;-0.974;2023-05-25T00:14:25;114.80;;;106.80;;
51438;SDS011;38816;51.142;-0.974;2023-05-25T00:16:51;114.85;;;106.88;;
51438;SDS011;38816;51.142;-0.974;2023-05-25T00:19:17;118.72;;;110.38;;
51438;SDS011;38816;51.142;-0.974;2023-05-25T00:21:42;122.28;;;113.75;;
51438;SDS011;38816;51.142;-0.974;2023-05-25T00:24:10;122.80;;;114.25;;
51438;SDS011;38816;51.142;-0.974;2023-05-25T00:26:35;122.97;;;114.38;;
51438;SDS011;38816;51.142;-0.974;2023-05-25T00:29:01;126.70;;;118.10;;
51438;SDS011;38816;51.142;-0.974;2023-05-25T00:31:27;126.50;;;117.68;;
51438;SDS011;38816;51.142;-0.974;2023-05-25T00:33:53;131.45;;;122.45;;
51438;SDS011;38816;51.142;-0.974;2023-05-25T00:36:19;133.70;;;124.38;;
51438;SDS011;38816;51.142;-0.974;2023-05-25T00:38:44;134.13;;;124.95;;
51438;SDS011;38816;51.142;-0.974;2023-05-25T00:41:10;131.75;;;122.63;;
51438;SDS011;38816;51.142;-0.974;2023-05-25T00:43:36;135.68;;;126.15;;
51438;SDS011;38816;51.142;-0.974;2023-05-25T00:46:01;139.25;;;129.65;;
51438;SDS011;38816;51.142;-0.974;2023-05-25T00:48:27;139.73;;;130.23;;
51438;SDS011;38816;51.142;-0.974;2023-05-25T00:50:53;141.05;;;131.63;;
51438;SDS011;38816;51.142;-0.974;2023-05-25T00:53:23;141.95;;;132.35;;
51438;SDS011;38816;51.142;-0.974;2023-05-25T00:55:58;142.77;;;132.88;;
51438;SDS011;38816;51.142;-0.974;2023-05-25T00:58:40;143.88;;;134.13;;
51438;SDS011;38816;51.142;-0.974;2023-05-25T01:01:08;145.35;;;135.20;;
51438;SDS011;38816;51.142;-0.974;2023-05-25T01:03:39;144.45;;;134.63;;
51438;SDS011;38816;51.142;-0.974;2023-05-25T01:06:13;150.35;;;139.95;;
51438;SDS011;38816;51.142;-0.974;2023-05-25T01:08:41;152.70;;;141.88;;
51438;SDS011;38816;51.142;-0.974;2023-05-25T01:11:10;151.25;;;140.77;;
51438;SDS011;38816;51.142;-0.974;2023-05-25T01:13:36;159.52;;;148.52;;
51438;SDS011;38816;51.142;-0.974;2023-05-25T01:16:03;159.00;;;148.05;;
51438;SDS011;38816;51.142;-0.974;2023-05-25T01:18:29;163.07;;;152.02;;
51438;SDS011;38816;51.142;-0.974;2023-05-25T01:23:42;160.82;;;149.90;;
51438;SDS011;38816;51.142;-0.974;2023-05-25T01:26:15;171.20;;;159.35;;
51438;SDS011;38816;51.142;-0.974;2023-05-25T01:28:43;165.52;;;153.82;;
51438;SDS011;38816;51.142;-0.974;2023-05-25T01:31:14;169.10;;;157.30;;
51438;SDS011;38816;51.142;-0.974;2023-05-25T01:33:41;168.35;;;156.63;;
51438;SDS011;38816;51.142;-0.974;2023-05-25T01:36:08;171.20;;;159.40;;
51438;SDS011;38816;51.142;-0.974;2023-05-25T01:38:34;171.40;;;159.60;;
51438;SDS011;38816;51.142;-0.974;2023-05-25T01:41:01;178.55;;;166.48;;
51438;SDS011;38816;51.142;-0.974;2023-05-25T01:43:26;178.18;;;166.00;;
51438;SDS011;38816;51.142;-0.974;2023-05-25T01:45:51;181.82;;;169.43;;
51438;SDS011;38816;51.142;-0.974;2023-05-25T01:48:37;182.63;;;170.00;;
51438;SDS011;38816;51.142;-0.974;2023-05-25T01:51:11;180.63;;;168.18;;
51438;SDS011;38816;51.142;-0.974;2023-05-25T01:53:44;181.75;;;169.18;;
51438;SDS011;38816;51.142;-0.974;2023-05-25T01:56:14;188.50;;;175.02;;
51438;SDS011;38816;51.142;-0.974;2023-05-25T01:58:44;186.68;;;173.57;;
51438;SDS011;38816;51.142;-0.974;2023-05-25T02:01:13;189.02;;;176.00;;
51438;SDS011;38816;51.142;-0.974;2023-05-25T02:03:42;189.30;;;176.55;;
51438;SDS011;38816;51.142;-0.974;2023-05-25T02:06:09;188.95;;;175.77;;
51438;SDS011;38816;51.142;-0.974;2023-05-25T02:08:34;190.07;;;177.35;;
51438;SDS011;38816;51.142;-0.974;2023-05-25T02:11:00;191.55;;;178.45;;
51438;SDS011;38816;51.142;-0.974;2023-05-25T02:13:26;185.85;;;173.35;;
51438;SDS011;38816;51.142;-0.974;2023-05-25T02:15:51;190.60;;;177.98;;
51438;SDS011;38816;51.142;-0.974;2023-05-25T02:18:17;189.25;;;176.10;;
51438;SDS011;38816;51.142;-0.974;2023-05-25T02:20:43;190.10;;;177.00;;
51438;SDS011;38816;51.142;-0.974;2023-05-25T02:23:08;182.32;;;169.75;;
51438;SDS011;38816;51.142;-0.974;2023-05-25T02:25:34;187.52;;;174.63;;
51438;SDS011;38816;51.142;-0.974;2023-05-25T02:28:00;189.23;;;176.32;;
51438;SDS011;38816;51.142;-0.974;2023-05-25T02:30:25;181.20;;;168.90;;
51438;SDS011;38816;51.142;-0.974;2023-05-25T02:32:51;183.45;;;171.00;;
51438;SDS011;38816;51.142;-0.974;2023-05-25T02:35:17;182.13;;;169.73;;
51438;SDS011;38816;51.142;-0.974;2023-05-25T02:37:43;179.63;;;167.32;;
51438;SDS011;38816;51.142;-0.974;2023-05-25T02:40:10;179.85;;;167.45;;
51438;SDS011;38816;51.142;-0.974;2023-05-25T02:42:36;179.18;;;166.52;;
51438;SDS011;38816;51.142;-0.974;2023-05-25T02:45:02;174.88;;;162.73;;
51438;SDS011;38816;51.142;-0.974;2023-05-25T02:47:30;170.05;;;157.57;;
51438;SDS011;38816;51.142;-0.974;2023-05-25T02:49:55;177.23;;;164.52;;
51438;SDS011;38816;51.142;-0.974;2023-05-25T02:52:20;172.50;;;160.15;;
51438;SDS011;38816;51.142;-0.974;2023-05-25T02:54:46;175.20;;;163.18;;
51438;SDS011;38816;51.142;-0.974;2023-05-25T02:57:12;176.35;;;164.43;;
51438;SDS011;38816;51.142;-0.974;2023-05-25T02:59:37;170.13;;;158.55;;
51438;SDS011;38816;51.142;-0.974;2023-05-25T03:02:02;175.18;;;162.68;;
51438;SDS011;38816;51.142;-0.974;2023-05-25T03:04:28;167.23;;;155.13;;
51438;SDS011;38816;51.142;-0.974;2023-05-25T03:06:57;170.15;;;157.73;;
51438;SDS011;38816;51.142;-0.974;2023-05-25T03:09:22;172.18;;;160.48;;
51438;SDS011;38816;51.142;-0.974;2023-05-25T03:11:47;164.27;;;152.43;;
51438;SDS011;38816;51.142;-0.974;2023-05-25T03:14:13;169.57;;;157.50;;
51438;SDS011;38816;51.142;-0.974;2023-05-25T03:16:38;169.48;;;157.80;;
51438;SDS011;38816;51.142;-0.974;2023-05-25T03:19:04;167.93;;;155.60;;
51438;SDS011;38816;51.142;-0.974;2023-05-25T03:21:30;166.77;;;155.13;;
51438;SDS011;38816;51.142;-0.974;2023-05-25T03:23:57;163.48;;;150.95;;
51438;SDS011;38816;51.142;-0.974;2023-05-25T03:26:23;156.98;;;146.00;;
51438;SDS011;38816;51.142;-0.974;2023-05-25T03:28:49;149.00;;;138.63;;
51438;SDS011;38816;51.142;-0.974;2023-05-25T03:31:15;152.40;;;141.65;;
51438;SDS011;38816;51.142;-0.974;2023-05-25T03:33:40;141.70;;;131.65;;
51438;SDS011;38816;51.142;-0.974;2023-05-25T03:36:06;138.68;;;128.88;;
51438;SDS011;38816;51.142;-0.974;2023-05-25T03:38:33;142.60;;;132.13;;
51438;SDS011;38816;51.142;-0.974;2023-05-25T03:40:58;139.70;;;129.07;;
51438;SDS011;38816;51.142;-0.974;2023-05-25T03:43:24;131.30;;;121.80;;
51438;SDS011;38816;51.142;-0.974;2023-05-25T03:45:49;133.23;;;123.75;;
51438;SDS011;38816;51.142;-0.974;2023-05-25T03:48:15;128.32;;;119.00;;
51438;SDS011;38816;51.142;-0.974;2023-05-25T03:50:40;125.20;;;116.15;;
51438;SDS011;38816;51.142;-0.974;2023-05-25T03:53:05;121.90;;;112.85;;
51438;SDS011;38816;51.142;-0.974;2023-05-25T03:55:31;121.28;;;112.53;;
51438;SDS011;38816;51.142;-0.974;2023-05-25T03:57:56;118.43;;;109.18;;
51438;SDS011;38816;51.142;-0.974;2023-05-25T04:00:22;116.38;;;107.72;;
51438;SDS011;38816;51.142;-0.974;2023-05-25T04:02:47;115.15;;;106.00;;
51438;SDS011;38816;51.142;-0.974;2023-05-25T04:05:13;110.22;;;102.05;;
51438;SDS011;38816;51.142;-0.974;2023-05-25T04:07:38;107.00;;;99.03;;
51438;SDS011;38816;51.142;-0.974;2023-05-25T04:10:04;104.18;;;96.32;;
51438;SDS011;38816;51.142;-0.974;2023-05-25T04:12:31;99.55;;;91.90;;
51438;SDS011;38816;51.142;-0.974;2023-05-25T04:14:57;96.20;;;88.70;;
51438;SDS011;38816;51.142;-0.974;2023-05-25T04:17:22;91.35;;;84.57;;
51438;SDS011;38816;51.142;-0.974;2023-05-25T04:19:49;83.38;;;77.00;;
51438;SDS011;38816;51.142;-0.974;2023-05-25T04:22:15;78.63;;;71.75;;
51438;SDS011;38816;51.142;-0.974;2023-05-25T04:24:41;68.55;;;62.28;;
51438;SDS011;38816;51.142;-0.974;2023-05-25T04:27:06;60.35;;;54.97;;
51438;SDS011;38816;51.142;-0.974;2023-05-25T04:29:32;59.92;;;54.30;;
51438;SDS011;38816;51.142;-0.974;2023-05-25T04:31:57;50.10;;;45.35;;
51438;SDS011;38816;51.142;-0.974;2023-05-25T04:34:23;45.28;;;40.97;;
51438;SDS011;38816;51.142;-0.974;2023-05-25T04:36:48;39.83;;;35.75;;
51438;SDS011;38816;51.142;-0.974;2023-05-25T04:39:13;37.40;;;33.72;;
51438;SDS011;38816;51.142;-0.974;2023-05-25T04:41:39;31.60;;;28.50;;
51438;SDS011;38816;51.142;-0.974;2023-05-25T04:44:07;33.45;;;28.25;;
51438;SDS011;38816;51.142;-0.974;2023-05-25T04:46:33;29.27;;;25.92;;
51438;SDS011;38816;51.142;-0.974;2023-05-25T04:49:01;34.47;;;24.00;;
51438;SDS011;38816;51.142;-0.974;2023-05-25T04:51:28;29.83;;;20.27;;
51438;SDS011;38816;51.142;-0.974;2023-05-25T04:53:53;30.77;;;19.02;;
51438;SDS011;38816;51.142;-0.974;2023-05-25T04:56:19;22.60;;;16.88;;
51438;SDS011;38816;51.142;-0.974;2023-05-25T04:58:49;24.98;;;15.43;;
51438;SDS011;38816;51.142;-0.974;2023-05-25T05:01:15;22.75;;;16.25;;
51438;SDS011;38816;51.142;-0.974;2023-05-25T05:03:41;27.05;;;14.35;;
51438;SDS011;38816;51.142;-0.974;2023-05-25T05:06:06;27.55;;;13.77;;
51438;SDS011;38816;51.142;-0.974;2023-05-25T05:08:32;22.27;;;13.32;;
51438;SDS011;38816;51.142;-0.974;2023-05-25T05:10:57;20.00;;;13.30;;
51438;SDS011;38816;51.142;-0.974;2023-05-25T05:13:23;22.60;;;12.02;;
51438;SDS011;38816;51.142;-0.974;2023-05-25T05:15:48;19.38;;;10.77;;
51438;SDS011;38816;51.142;-0.974;2023-05-25T05:18:14;21.60;;;9.90;;
51438;SDS011;38816;51.142;-0.974;2023-05-25T05:20:39;19.20;;;10.70;;
51438;SDS011;38816;51.142;-0.974;2023-05-25T05:23:05;25.77;;;9.98;;
51438;SDS011;38816;51.142;-0.974;2023-05-25T05:25:30;27.13;;;9.90;;
51438;SDS011;38816;51.142;-0.974;2023-05-25T05:27:55;15.23;;;8.95;;
51438;SDS011;38816;51.142;-0.974;2023-05-25T05:30:21;19.85;;;9.82;;
51438;SDS011;38816;51.142;-0.974;2023-05-25T05:32:46;18.33;;;10.40;;
51438;SDS011;38816;51.142;-0.974;2023-05-25T05:35:12;16.95;;;9.40;;
51438;SDS011;38816;51.142;-0.974;2023-05-25T05:37:37;16.85;;;9.05;;
51438;SDS011;38816;51.142;-0.974;2023-05-25T05:40:02;13.05;;;9.13;;
51438;SDS011;38816;51.142;-0.974;2023-05-25T05:42:28;17.48;;;9.30;;
51438;SDS011;38816;51.142;-0.974;2023-05-25T05:44:53;14.80;;;9.00;;
51438;SDS011;38816;51.142;-0.974;2023-05-25T05:47:19;15.13;;;9.43;;
51438;SDS011;38816;51.142;-0.974;2023-05-25T05:49:45;13.98;;;8.93;;
51438;SDS011;38816;51.142;-0.974;2023-05-25T05:52:11;17.42;;;9.23;;
51438;SDS011;38816;51.142;-0.974;2023-05-25T05:54:36;15.43;;;9.25;;
51438;SDS011;38816;51.142;-0.974;2023-05-25T05:57:02;18.25;;;9.48;;
51438;SDS011;38816;51.142;-0.974;2023-05-25T05:59:27;17.17;;;9.38;;
51438;SDS011;38816;51.142;-0.974;2023-05-25T06:01:53;22.88;;;10.02;;
51438;SDS011;38816;51.142;-0.974;2023-05-25T06:04:18;13.15;;;9.32;;
51438;SDS011;38816;51.142;-0.974;2023-05-25T06:06:43;18.30;;;10.02;;
51438;SDS011;38816;51.142;-0.974;2023-05-25T06:09:09;15.57;;;9.27;;
51438;SDS011;38816;51.142;-0.974;2023-05-25T06:11:35;16.80;;;8.93;;
51438;SDS011;38816;51.142;-0.974;2023-05-25T06:14:01;20.15;;;9.27;;
51438;SDS011;38816;51.142;-0.974;2023-05-25T06:16:27;16.15;;;9.82;;
51438;SDS011;38816;51.142;-0.974;2023-05-25T06:18:53;14.07;;;9.95;;
51438;SDS011;38816;51.142;-0.974;2023-05-25T06:21:18;18.35;;;11.13;;
51438;SDS011;38816;51.142;-0.974;2023-05-25T06:23:43;17.23;;;10.60;;
51438;SDS011;38816;51.142;-0.974;2023-05-25T06:26:09;18.63;;;10.82;;
51438;SDS011;38816;51.142;-0.974;2023-05-25T06:28:34;17.25;;;10.73;;
51438;SDS011;38816;51.142;-0.974;2023-05-25T06:31:00;15.85;;;10.70;;
51438;SDS011;38816;51.142;-0.974;2023-05-25T06:33:26;18.30;;;9.98;;
51438;SDS011;38816;51.142;-0.974;2023-05-25T06:35:51;18.90;;;10.60;;
51438;SDS011;38816;51.142;-0.974;2023-05-25T06:38:20;15.60;;;9.45;;
51438;SDS011;38816;51.142;-0.974;2023-05-25T06:40:45;17.50;;;9.32;;
51438;SDS011;38816;51.142;-0.974;2023-05-25T06:43:11;15.32;;;8.85;;
51438;SDS011;38816;51.142;-0.974;2023-05-25T06:45:36;13.68;;;8.23;;
51438;SDS011;38816;51.142;-0.974;2023-05-25T06:48:01;17.67;;;9.00;;
51438;SDS011;38816;51.142;-0.974;2023-05-25T06:50:27;11.30;;;9.35;;
51438;SDS011;38816;51.142;-0.974;2023-05-25T06:52:52;19.92;;;9.13;;
51438;SDS011;38816;51.142;-0.974;2023-05-25T06:55:18;17.88;;;8.77;;
51438;SDS011;38816;51.142;-0.974;2023-05-25T06:57:43;17.13;;;9.35;;
51438;SDS011;38816;51.142;-0.974;2023-05-25T07:00:08;16.67;;;9.00;;
51438;SDS011;38816;51.142;-0.974;2023-05-25T07:02:37;16.48;;;9.30;;
51438;SDS011;38816;51.142;-0.974;2023-05-25T07:05:03;15.00;;;8.70;;
51438;SDS011;38816;51.142;-0.974;2023-05-25T07:07:30;13.95;;;8.43;;
51438;SDS011;38816;51.142;-0.974;2023-05-25T07:09:56;13.98;;;9.07;;
51438;SDS011;38816;51.142;-0.974;2023-05-25T07:12:21;16.63;;;8.73;;
51438;SDS011;38816;51.142;-0.974;2023-05-25T07:14:47;20.27;;;9.27;;
51438;SDS011;38816;51.142;-0.974;2023-05-25T07:17:12;16.80;;;9.30;;
51438;SDS011;38816;51.142;-0.974;2023-05-25T07:19:38;17.35;;;8.90;;
51438;SDS011;38816;51.142;-0.974;2023-05-25T07:22:06;14.20;;;9.52;;
51438;SDS011;38816;51.142;-0.974;2023-05-25T07:24:31;18.58;;;9.35;;
51438;SDS011;38816;51.142;-0.974;2023-05-25T07:26:57;17.40;;;9.25;;
51438;SDS011;38816;51.142;-0.974;2023-05-25T07:29:22;15.95;;;8.77;;
51438;SDS011;38816;51.142;-0.974;2023-05-25T07:31:48;18.40;;;9.43;;
51438;SDS011;38816;51.142;-0.974;2023-05-25T07:34:13;12.60;;;8.68;;
51438;SDS011;38816;51.142;-0.974;2023-05-25T07:36:39;20.70;;;9.88;;
51438;SDS011;38816;51.142;-0.974;2023-05-25T07:39:04;16.50;;;10.82;;
51438;SDS011;38816;51.142;-0.974;2023-05-25T07:41:30;13.75;;;10.68;;
51438;SDS011;38816;51.142;-0.974;2023-05-25T07:43:56;15.80;;;10.68;;
51438;SDS011;38816;51.142;-0.974;2023-05-25T07:46:21;14.18;;;10.93;;
51438;SDS011;38816;51.142;-0.974;2023-05-25T07:48:49;14.57;;;11.05;;
51438;SDS011;38816;51.142;-0.974;2023-05-25T07:51:15;18.15;;;10.95;;
51438;SDS011;38816;51.142;-0.974;2023-05-25T07:53:40;18.58;;;10.55;;
51438;SDS011;38816;51.142;-0.974;2023-05-25T07:56:06;17.20;;;10.98;;
51438;SDS011;38816;51.142;-0.974;2023-05-25T07:58:32;16.20;;;11.23;;
51438;SDS011;38816;51.142;-0.974;2023-05-25T08:00:58;16.38;;;10.98;;
51438;SDS011;38816;51.142;-0.974;2023-05-25T08:03:23;14.73;;;11.00;;
51438;SDS011;38816;51.142;-0.974;2023-05-25T08:05:49;18.58;;;11.65;;
51438;SDS011;38816;51.142;-0.974;2023-05-25T08:08:15;16.25;;;11.18;;
51438;SDS011;38816;51.142;-0.974;2023-05-25T08:10:40;15.25;;;11.95;;
51438;SDS011;38816;51.142;-0.974;2023-05-25T08:13:05;15.20;;;11.23;;
51438;SDS011;38816;51.142;-0.974;2023-05-25T08:15:31;14.43;;;11.43;;
51438;SDS011;38816;51.142;-0.974;2023-05-25T08:17:56;16.65;;;12.82;;
51438;SDS011;38816;51.142;-0.974;2023-05-25T08:20:21;16.40;;;12.07;;
51438;SDS011;38816;51.142;-0.974;2023-05-25T08:22:48;16.33;;;13.23;;
51438;SDS011;38816;51.142;-0.974;2023-05-25T08:25:17;17.13;;;12.15;;
51438;SDS011;38816;51.142;-0.974;2023-05-25T08:27:43;15.77;;;14.13;;
51438;SDS011;38816;51.142;-0.974;2023-05-25T08:30:08;14.82;;;13.23;;
51438;SDS011;38816;51.142;-0.974;2023-05-25T08:32:34;15.35;;;13.75;;
51438;SDS011;38816;51.142;-0.974;2023-05-25T08:34:59;16.90;;;14.52;;
51438;SDS011;38816;51.142;-0.974;2023-05-25T08:37:25;18.20;;;13.98;;
51438;SDS011;38816;51.142;-0.974;2023-05-25T08:39:51;17.42;;;15.00;;
51438;SDS011;38816;51.142;-0.974;2023-05-25T08:42:16;16.30;;;14.38;;
51438;SDS011;38816;51.142;-0.974;2023-05-25T08:44:42;21.35;;;15.15;;
51438;SDS011;38816;51.142;-0.974;2023-05-25T08:47:07;20.80;;;16.13;;
51438;SDS011;38816;51.142;-0.974;2023-05-25T08:49:36;23.35;;;17.00;;
51438;SDS011;38816;51.142;-0.974;2023-05-25T08:52:02;20.35;;;18.35;;
51438;SDS011;38816;51.142;-0.974;2023-05-25T08:54:31;22.02;;;19.30;;
51438;SDS011;38816;51.142;-0.974;2023-05-25T08:57:04;21.83;;;19.90;;
51438;SDS011;38816;51.142;-0.974;2023-05-25T08:59:41;21.83;;;19.90;;
51438;SDS011;38816;51.142;-0.974;2023-05-25T09:04:49;21.83;;;19.55;;
51438;SDS011;38816;51.142;-0.974;2023-05-25T09:07:14;21.33;;;19.17;;
51438;SDS011;38816;51.142;-0.974;2023-05-25T09:09:40;21.30;;;19.40;;
51438;SDS011;38816;51.142;-0.974;2023-05-25T09:12:07;21.02;;;19.13;;
51438;SDS011;38816;51.142;-0.974;2023-05-25T09:14:32;23.73;;;21.25;;
51438;SDS011;38816;51.142;-0.974;2023-05-25T09:16:59;20.25;;;18.30;;
51438;SDS011;38816;51.142;-0.974;2023-05-25T09:19:24;20.65;;;18.65;;
51438;SDS011;38816;51.142;-0.974;2023-05-25T09:21:50;20.55;;;18.30;;
51438;SDS011;38816;51.142;-0.974;2023-05-25T09:24:16;20.05;;;18.10;;
51438;SDS011;38816;51.142;-0.974;2023-05-25T09:26:43;20.08;;;18.00;;
51438;SDS011;38816;51.142;-0.974;2023-05-25T09:29:12;21.15;;;19.27;;
51438;SDS011;38816;51.142;-0.974;2023-05-25T09:31:37;20.58;;;18.67;;
51438;SDS011;38816;51.142;-0.974;2023-05-25T09:34:05;20.70;;;18.40;;
51438;SDS011;38816;51.142;-0.974;2023-05-25T09:36:35;20.75;;;18.73;;
51438;SDS011;38816;51.142;-0.974;2023-05-25T09:39:05;21.73;;;19.73;;
51438;SDS011;38816;51.142;-0.974;2023-05-25T09:41:33;21.55;;;19.30;;
51438;SDS011;38816;51.142;-0.974;2023-05-25T09:43:58;22.50;;;20.15;;
51438;SDS011;38816;51.142;-0.974;2023-05-25T09:46:23;20.70;;;18.58;;
51438;SDS011;38816;51.142;-0.974;2023-05-25T09:48:50;18.65;;;16.95;;
51438;SDS011;38816;51.142;-0.974;2023-05-25T09:51:17;23.58;;;19.42;;
51438;SDS011;38816;51.142;-0.974;2023-05-25T09:53:42;21.58;;;19.75;;
51438;SDS011;38816;51.142;-0.974;2023-05-25T09:56:10;22.73;;;20.60;;
51438;SDS011;38816;51.142;-0.974;2023-05-25T09:58:36;21.15;;;19.25;;
51438;SDS011;38816;51.142;-0.974;2023-05-25T10:01:02;22.10;;;19.80;;
51438;SDS011;38816;51.142;-0.974;2023-05-25T10:03:28;23.27;;;20.77;;
51438;SDS011;38816;51.142;-0.974;2023-05-25T10:05:54;22.95;;;20.95;;
51438;SDS011;38816;51.142;-0.974;2023-05-25T10:08:20;23.92;;;21.17;;
51438;SDS011;38816;51.142;-0.974;2023-05-25T10:10:47;23.80;;;21.63;;
51438;SDS011;38816;51.142;-0.974;2023-05-25T10:13:14;23.33;;;21.33;;
51438;SDS011;38816;51.142;-0.974;2023-05-25T10:15:45;23.05;;;20.95;;
51438;SDS011;38816;51.142;-0.974;2023-05-25T10:18:12;24.02;;;21.92;;
51438;SDS011;38816;51.142;-0.974;2023-05-25T10:20:39;25.35;;;23.35;;
51438;SDS011;38816;51.142;-0.974;2023-05-25T10:23:10;25.52;;;23.48;;
51438;SDS011;38816;51.142;-0.974;2023-05-25T10:25:39;26.08;;;23.65;;
51438;SDS011;38816;51.142;-0.974;2023-05-25T10:30:33;23.23;;;21.15;;
51438;SDS011;38816;51.142;-0.974;2023-05-25T10:33:01;24.42;;;22.20;;
51438;SDS011;38816;51.142;-0.974;2023-05-25T10:35:27;24.23;;;22.13;;
51438;SDS011;38816;51.142;-0.974;2023-05-25T10:37:53;25.48;;;22.70;;
51438;SDS011;38816;51.142;-0.974;2023-05-25T10:40:22;24.45;;;22.17;;
51438;SDS011;38816;51.142;-0.974;2023-05-25T10:42:50;25.95;;;23.73;;
51438;SDS011;38816;51.142;-0.974;2023-05-25T10:45:16;25.30;;;23.10;;
51438;SDS011;38816;51.142;-0.974;2023-05-25T10:47:42;24.42;;;22.33;;
51438;SDS011;38816;51.142;-0.974;2023-05-25T10:50:19;24.73;;;21.55;;
51438;SDS011;38816;51.142;-0.974;2023-05-25T10:53:01;25.50;;;22.92;;
51438;SDS011;38816;51.142;-0.974;2023-05-25T10:55:27;24.20;;;21.70;;
51438;SDS011;38816;51.142;-0.974;2023-05-25T10:58:14;22.92;;;20.65;;
51438;SDS011;38816;51.142;-0.974;2023-05-25T11:00:42;25.50;;;23.42;;
51438;SDS011;38816;51.142;-0.974;2023-05-25T11:03:22;24.40;;;22.25;;
51438;SDS011;38816;51.142;-0.974;2023-05-25T11:06:07;27.42;;;24.85;;
51438;SDS011;38816;51.142;-0.974;2023-05-25T11:08:50;26.05;;;23.88;;
51438;SDS011;38816;51.142;-0.974;2023-05-25T11:11:19;26.02;;;23.58;;
51438;SDS011;38816;51.142;-0.974;2023-05-25T11:13:47;26.02;;;23.38;;
51438;SDS011;38816;51.142;-0.974;2023-05-25T11:16:20;26.90;;;24.63;;
51438;SDS011;38816;51.142;-0.974;2023-05-25T11:18:52;24.88;;;22.08;;
51438;SDS011;38816;51.142;-0.974;2023-05-25T11:23:57;25.88;;;23.75;;
51438;SDS011;38816;51.142;-0.974;2023-05-25T11:26:32;24.27;;;22.23;;
51438;SDS011;38816;51.142;-0.974;2023-05-25T11:28:59;27.08;;;24.77;;
51438;SDS011;38816;51.142;-0.974;2023-05-25T11:31:29;25.33;;;22.70;;
51438;SDS011;38816;51.142;-0.974;2023-05-25T11:33:57;26.33;;;23.88;;
51438;SDS011;38816;51.142;-0.974;2023-05-25T11:36:24;25.63;;;23.42;;
51438;SDS011;38816;51.142;-0.974;2023-05-25T11:38:51;24.15;;;21.98;;
51438;SDS011;38816;51.142;-0.974;2023-05-25T11:41:18;26.75;;;24.13;;
51438;SDS011;38816;51.142;-0.974;2023-05-25T11:43:46;23.02;;;21.23;;
51438;SDS011;38816;51.142;-0.974;2023-05-25T11:46:14;24.65;;;22.30;;
51438;SDS011;38816;51.142;-0.974;2023-05-25T11:48:52;26.13;;;23.63;;
51438;SDS011;38816;51.142;-0.974;2023-05-25T11:51:26;22.35;;;20.58;;
51438;SDS011;38816;51.142;-0.974;2023-05-25T11:53:52;24.88;;;22.52;;
51438;SDS011;38816;51.142;-0.974;2023-05-25T11:56:18;26.50;;;24.25;;
51438;SDS011;38816;51.142;-0.974;2023-05-25T11:58:45;25.23;;;22.55;;
51438;SDS011;38816;51.142;-0.974;2023-05-25T12:01:29;23.48;;;21.25;;
51438;SDS011;38816;51.142;-0.974;2023-05-25T12:04:04;25.67;;;23.50;;
51438;SDS011;38816;51.142;-0.974;2023-05-25T12:06:32;25.95;;;23.63;;
51438;SDS011;38816;51.142;-0.974;2023-05-25T12:09:00;25.30;;;23.00;;
51438;SDS011;38816;51.142;-0.974;2023-05-25T12:11:31;25.38;;;23.17;;
51438;SDS011;38816;51.142;-0.974;2023-05-25T12:13:58;28.13;;;25.30;;
51438;SDS011;38816;51.142;-0.974;2023-05-25T12:16:26;25.55;;;23.25;;
51438;SDS011;38816;51.142;-0.974;2023-05-25T12:18:52;26.20;;;23.67;;
51438;SDS011;38816;51.142;-0.974;2023-05-25T12:21:18;29.30;;;26.73;;
51438;SDS011;38816;51.142;-0.974;2023-05-25T12:23:45;27.70;;;25.35;;
51438;SDS011;38816;51.142;-0.974;2023-05-25T12:26:12;29.23;;;26.67;;
51438;SDS011;38816;51.142;-0.974;2023-05-25T12:28:39;28.95;;;26.13;;
51438;SDS011;38816;51.142;-0.974;2023-05-25T12:31:24;28.98;;;26.25;;
51438;SDS011;38816;51.142;-0.974;2023-05-25T12:34:07;28.33;;;25.77;;
51438;SDS011;38816;51.142;-0.974;2023-05-25T12:36:35;28.60;;;26.15;;
51438;SDS011;38816;51.142;-0.974;2023-05-25T12:39:02;27.58;;;25.05;;
51438;SDS011;38816;51.142;-0.974;2023-05-25T12:41:28;28.73;;;26.30;;
51438;SDS011;38816;51.142;-0.974;2023-05-25T12:43:53;28.45;;;25.80;;
51438;SDS011;38816;51.142;-0.974;2023-05-25T12:46:25;28.90;;;26.20;;
51438;SDS011;38816;51.142;-0.974;2023-05-25T12:48:51;28.77;;;25.92;;
51438;SDS011;38816;51.142;-0.974;2023-05-25T12:51:17;28.92;;;26.02;;
51438;SDS011;38816;51.142;-0.974;2023-05-25T12:53:48;28.42;;;25.85;;
51438;SDS011;38816;51.142;-0.974;2023-05-25T12:56:15;27.20;;;24.60;;
51438;SDS011;38816;51.142;-0.974;2023-05-25T12:58:40;28.88;;;26.33;;
51438;SDS011;38816;51.142;-0.974;2023-05-25T13:01:08;28.05;;;25.58;;
51438;SDS011;38816;51.142;-0.974;2023-05-25T13:03:34;27.05;;;24.58;;
51438;SDS011;38816;51.142;-0.974;2023-05-25T13:06:00;26.33;;;23.73;;
51438;SDS011;38816;51.142;-0.974;2023-05-25T13:08:26;25.50;;;23.45;;
51438;SDS011;38816;51.142;-0.974;2023-05-25T13:10:54;25.67;;;23.58;;
51438;SDS011;38816;51.142;-0.974;2023-05-25T13:13:20;27.63;;;24.95;;
51438;SDS011;38816;51.142;-0.974;2023-05-25T13:15:45;26.98;;;24.33;;
51438;SDS011;38816;51.142;-0.974;2023-05-25T13:18:11;28.17;;;25.48;;
51438;SDS011;38816;51.142;-0.974;2023-05-25T13:20:36;28.92;;;26.38;;
51438;SDS011;38816;51.142;-0.974;2023-05-25T13:23:02;29.60;;;26.73;;
51438;SDS011;38816;51.142;-0.974;2023-05-25T13:25:27;26.02;;;23.73;;
51438;SDS011;38816;51.142;-0.974;2023-05-25T13:27:53;27.95;;;25.25;;
51438;SDS011;38816;51.142;-0.974;2023-05-25T13:30:20;29.42;;;26.98;;
51438;SDS011;38816;51.142;-0.974;2023-05-25T13:32:46;28.10;;;25.38;;
51438;SDS011;38816;51.142;-0.974;2023-05-25T13:35:11;29.10;;;26.52;;
51438;SDS011;38816;51.142;-0.974;2023-05-25T13:37:43;28.95;;;26.08;;
51438;SDS011;38816;51.142;-0.974;2023-05-25T13:40:09;26.05;;;23.63;;
51438;SDS011;38816;51.142;-0.974;2023-05-25T13:42:35;28.77;;;26.20;;
51438;SDS011;38816;51.142;-0.974;2023-05-25T13:45:00;29.45;;;26.80;;
51438;SDS011;38816;51.142;-0.974;2023-05-25T13:47:25;27.40;;;25.13;;
51438;SDS011;38816;51.142;-0.974;2023-05-25T13:49:51;27.40;;;24.65;;
51438;SDS011;38816;51.142;-0.974;2023-05-25T13:52:16;27.08;;;24.65;;
51438;SDS011;38816;51.142;-0.974;2023-05-25T13:54:42;28.60;;;25.85;;
51438;SDS011;38816;51.142;-0.974;2023-05-25T13:57:07;27.48;;;24.80;;
51438;SDS011;38816;51.142;-0.974;2023-05-25T13:59:33;25.33;;;23.23;;
51438;SDS011;38816;51.142;-0.974;2023-05-25T14:01:58;25.25;;;22.88;;
51438;SDS011;38816;51.142;-0.974;2023-05-25T14:04:24;28.75;;;26.35;;
51438;SDS011;38816;51.142;-0.974;2023-05-25T14:06:49;28.50;;;25.90;;
51438;SDS011;38816;51.142;-0.974;2023-05-25T14:09:15;27.92;;;24.98;;
51438;SDS011;38816;51.142;-0.974;2023-05-25T14:11:41;28.90;;;26.60;;
51438;SDS011;38816;51.142;-0.974;2023-05-25T14:14:07;25.65;;;23.23;;